• Join FlightAware (Why Join?)
  • Login
  • US Flag 
11:50PM EDT


 

Airport Tracker/Info


-or-


 

Live Flight TrackerFlight Track Log ✈ TAM3900 ✈ 08-Jul-2013 ✈ SBSP / CGH - SBRJ / SDU

Flight Track Log - Related Links

Times and Time Zones

All times are in EDT time to prevent confusion due to time zone crossing. See the TAM3900 flight status page for this flight to view local times or setup timezone preferences in your user account.

Time Position Orientation Groundspeed Altitude Reporting Facility
EDT Latitude Longitude Course Direction KTS MPH feet Rate Location/Type
05:21AM -23.5312 -46.1650 78° East  Level Estimated
05:22AM -23.5175 -46.0950 78° East  Level Estimated
05:23AM -23.5037 -46.0250 78° East  Level Estimated
05:24AM -23.4899 -45.9550 78° East  Level Estimated
05:25AM -23.4760 -45.8851 78° East  Level Estimated
05:26AM -23.4621 -45.8152 78° East  Level Estimated
05:27AM -23.4482 -45.7452 78° East  Level Estimated
05:28AM -23.4343 -45.6753 78° East  Level Estimated
05:29AM -23.4203 -45.6054 78° East  Level Estimated
05:30AM -23.4063 -45.5355 78° East  Level Estimated
05:31AM -23.3803 -45.4062 78° East  Level Estimated
05:32AM -23.3541 -45.2769 78° East  Level Estimated
05:33AM -23.3279 -45.1476 78° East  Level Estimated
05:34AM -23.3015 -45.0184 78° East  Level Estimated
05:35AM -23.2751 -44.8892 77° East  Level Estimated
05:36AM -23.2485 -44.7601 77° East  Level Estimated
05:37AM -23.2219 -44.6311 77° East  Level Estimated
05:38AM -23.1951 -44.5020 77° East  Level Estimated
05:39AM -23.1682 -44.3731 77° East  Level Estimated
05:40AM -23.1413 -44.2442 77° East  Level Estimated
05:41AM -23.1142 -44.1153 77° East  Level Estimated
05:42AM -23.0870 -43.9865 77° East  Level Estimated
05:43AM -23.0597 -43.8578 77° East  Level Estimated
05:44AM -23.0323 -43.7291 77° East  Level Estimated
05:45AM -23.0048 -43.6004 77° East  Level Estimated
05:46AM -22.9772 -43.4719 77° East  Level Estimated
05:47AM -22.9495 -43.3433 77° East  Level Estimated
05:48AM -22.9217 -43.2148 77° East  Level Estimated
05:49AM -22.9105 -43.1631 77° East  Level Estimated
05:50AM -22.9105 -43.1631 250° West  Level Estimated
05:51AM -22.9105 -43.1631 250° West  Level Estimated
05:52AM -22.9105 -43.1631 250° West  Level Estimated
05:53AM -22.9105 -43.1631 250° West  Level Estimated
05:54AM -22.9105 -43.1631 250° West  Level Estimated
05:55AM -22.9105 -43.1631 250° West  Level Estimated
05:56AM -22.9105 -43.1631 250° West  Level Estimated
05:57AM -22.9105 -43.1631 250° West  Level Estimated